createdAt,value
2018-06-15T00:00:56.870Z,0.00
2018-06-15T00:01:56.641Z,0.00
2018-06-15T00:03:20.104Z,0.00
2018-06-15T00:04:21.251Z,0.00
2018-06-15T00:05:20.122Z,0.00
2018-06-15T00:06:20.567Z,0.00
2018-06-15T00:07:20.702Z,0.00
2018-06-15T00:08:42.625Z,0.00
2018-06-15T00:09:46.320Z,0.00
2018-06-15T00:10:43.561Z,0.00
2018-06-15T00:11:42.577Z,0.00
2018-06-15T00:12:43.983Z,0.00
2018-06-15T00:13:43.341Z,0.00
2018-06-15T00:14:44.121Z,0.00
2018-06-15T00:16:05.361Z,0.00
2018-06-15T00:17:06.543Z,0.00
2018-06-15T00:18:05.808Z,0.00
2018-06-15T00:19:06.868Z,0.00
2018-06-15T00:20:06.590Z,0.00
2018-06-15T00:21:06.402Z,0.00
2018-06-15T00:22:05.503Z,0.00
2018-06-15T00:23:05.395Z,0.00
2018-06-15T00:24:05.566Z,0.00
2018-06-15T00:25:29.750Z,0.00
2018-06-15T00:26:49.910Z,0.00
2018-06-15T00:27:51.421Z,0.00
2018-06-15T00:28:50.558Z,0.00
2018-06-15T00:29:50.857Z,0.00
2018-06-15T00:30:51.035Z,0.00
2018-06-15T00:31:51.141Z,0.00
2018-06-15T00:33:35.074Z,0.00
2018-06-15T00:34:35.971Z,0.00
2018-06-15T00:35:58.551Z,0.00
2018-06-15T00:36:58.340Z,0.00
2018-06-15T00:37:58.370Z,0.00
2018-06-15T00:38:58.390Z,0.00
2018-06-15T00:39:58.730Z,0.00
2018-06-15T00:40:59.320Z,0.00
2018-06-15T00:41:59.026Z,0.00
2018-06-15T00:42:59.246Z,0.00
2018-06-15T00:43:59.002Z,0.00
2018-06-15T00:44:59.754Z,0.00
2018-06-15T00:45:59.640Z,0.00
2018-06-15T00:46:58.214Z,0.00
2018-06-15T00:47:59.274Z,0.00
2018-06-15T00:48:58.619Z,0.00
2018-06-15T00:49:58.965Z,0.00
2018-06-15T00:50:59.366Z,0.00
2018-06-15T00:51:57.821Z,0.00
2018-06-15T00:52:58.544Z,0.00
2018-06-15T00:53:58.763Z,0.00
2018-06-15T00:54:58.399Z,0.00
2018-06-15T00:55:58.368Z,0.00
2018-06-15T00:56:58.102Z,0.00
2018-06-15T00:57:58.949Z,0.00
2018-06-15T00:58:58.815Z,0.00
2018-06-15T00:59:58.771Z,0.00
2018-06-15T01:00:58.969Z,0.00
2018-06-15T01:02:23.472Z,0.00
2018-06-15T01:03:23.440Z,0.00
2018-06-15T01:04:23.506Z,0.00
2018-06-15T01:05:44.883Z,0.00
2018-06-15T01:06:46.049Z,0.00
2018-06-15T01:08:07.238Z,0.00
2018-06-15T01:09:29.556Z,0.00
2018-06-15T01:10:29.575Z,0.00
2018-06-15T01:11:30.726Z,0.00
2018-06-15T01:12:30.441Z,0.00
2018-06-15T01:13:30.398Z,0.00
2018-06-15T01:14:30.177Z,0.00
2018-06-15T01:15:30.264Z,0.00
2018-06-15T01:16:51.942Z,0.00
2018-06-15T01:17:52.218Z,0.00
2018-06-15T01:19:13.901Z,0.00
2018-06-15T01:20:14.350Z,0.00
2018-06-15T01:21:38.090Z,0.00
2018-06-15T01:22:38.288Z,0.00
2018-06-15T01:23:38.235Z,0.00
2018-06-15T01:24:37.896Z,0.00
2018-06-15T01:25:38.633Z,0.00
2018-06-15T01:26:38.803Z,0.00
2018-06-15T01:27:38.701Z,0.00
2018-06-15T01:28:38.859Z,0.00
2018-06-15T01:30:00.236Z,0.00
2018-06-15T01:31:01.027Z,0.00
2018-06-15T01:32:01.096Z,0.00
2018-06-15T01:33:00.814Z,0.00
2018-06-15T01:34:00.812Z,0.00
2018-06-15T01:35:01.043Z,0.00
2018-06-15T01:36:22.462Z,0.00
2018-06-15T01:37:46.594Z,0.00
2018-06-15T01:38:47.507Z,0.00
2018-06-15T01:40:33.889Z,0.00
2018-06-15T01:41:31.941Z,0.00
2018-06-15T01:42:31.496Z,0.00
2018-06-15T01:43:52.913Z,0.00
2018-06-15T01:44:53.960Z,0.00
2018-06-15T01:45:52.940Z,0.00
2018-06-15T01:46:53.805Z,0.00
2018-06-15T01:47:53.805Z,0.00
2018-06-15T01:48:53.844Z,0.00
2018-06-15T01:49:53.820Z,0.00
2018-06-15T01:50:53.500Z,0.00
2018-06-15T01:51:53.331Z,0.00
2018-06-15T01:52:54.100Z,0.00
2018-06-15T01:53:53.266Z,0.00
2018-06-15T01:54:53.775Z,0.00
2018-06-15T01:55:53.799Z,0.00
2018-06-15T01:56:53.735Z,0.00
2018-06-15T01:57:54.635Z,0.00
2018-06-15T01:58:53.406Z,0.00
2018-06-15T01:59:54.269Z,0.00
2018-06-15T02:01:15.003Z,0.00
2018-06-15T02:02:15.141Z,0.00
2018-06-15T02:03:15.103Z,0.00
2018-06-15T02:04:37.527Z,0.00
2018-06-15T02:05:38.599Z,0.00
2018-06-15T02:06:37.627Z,0.00
2018-06-15T02:07:38.390Z,0.00
2018-06-15T02:08:38.278Z,0.00
2018-06-15T02:09:38.183Z,0.00
2018-06-15T02:10:38.667Z,1.00
2018-06-15T02:11:59.496Z,1.00
2018-06-15T02:13:00.064Z,1.00
2018-06-15T02:13:59.857Z,1.00
2018-06-15T02:14:59.838Z,1.00
2018-06-15T02:15:59.676Z,1.00
2018-06-15T02:16:59.949Z,1.00
2018-06-15T02:17:59.895Z,1.00
2018-06-15T02:19:22.085Z,1.00
2018-06-15T02:20:23.109Z,1.00
2018-06-15T02:21:23.122Z,2.00
2018-06-15T02:22:23.300Z,1.00
2018-06-15T02:23:44.972Z,2.00
2018-06-15T02:24:45.909Z,2.00
2018-06-15T02:25:45.776Z,3.00
2018-06-15T02:26:45.744Z,3.00
2018-06-15T02:27:45.717Z,3.00
2018-06-15T02:28:45.356Z,4.00
2018-06-15T02:29:44.966Z,6.00
2018-06-15T02:30:44.887Z,6.00
2018-06-15T02:31:46.564Z,8.00
2018-06-15T02:32:45.303Z,9.00
2018-06-15T02:33:45.862Z,9.00
2018-06-15T02:34:46.205Z,10.00
2018-06-15T02:35:44.897Z,11.00
2018-06-15T02:36:45.040Z,12.00
2018-06-15T02:37:45.193Z,13.00
2018-06-15T02:38:45.584Z,14.00
2018-06-15T02:39:45.588Z,17.00
2018-06-15T02:40:45.654Z,18.00
2018-06-15T02:41:46.661Z,20.00
2018-06-15T02:42:45.702Z,20.00
2018-06-15T02:44:14.910Z,20.00
2018-06-15T02:45:10.120Z,21.00
2018-06-15T02:46:10.073Z,23.00
2018-06-15T02:47:10.048Z,26.00
2018-06-15T02:48:32.545Z,31.00
2018-06-15T02:49:54.687Z,32.00
2018-06-15T02:50:54.524Z,35.00
2018-06-15T02:51:54.477Z,37.00
2018-06-15T02:52:54.510Z,41.00
2018-06-15T02:53:55.788Z,45.00
2018-06-15T02:54:55.200Z,49.00
2018-06-15T02:55:54.503Z,53.00
2018-06-15T02:56:54.638Z,58.00
2018-06-15T02:57:54.825Z,66.00
2018-06-15T02:58:54.984Z,76.00
2018-06-15T02:59:55.052Z,84.00
2018-06-15T03:00:55.128Z,87.00
2018-06-15T03:03:00.639Z,84.00
2018-06-15T03:04:01.395Z,86.00
2018-06-15T03:05:01.372Z,90.00
2018-06-15T03:06:01.431Z,96.00
2018-06-15T03:07:23.880Z,107.00
2018-06-15T03:08:23.765Z,125.00
2018-06-15T03:09:23.875Z,150.00
2018-06-15T03:10:24.030Z,175.00
2018-06-15T03:11:24.104Z,194.00
2018-06-15T03:12:24.102Z,209.00
2018-06-15T03:13:45.521Z,227.00
2018-06-15T03:14:45.499Z,241.00
2018-06-15T03:15:45.804Z,249.00
2018-06-15T03:16:45.475Z,248.00
2018-06-15T03:17:45.476Z,245.00
2018-06-15T03:19:30.021Z,270.00
2018-06-15T03:20:29.830Z,299.00
2018-06-15T03:21:29.664Z,321.00
2018-06-15T03:22:51.316Z,325.00
2018-06-15T03:24:13.950Z,313.00
2018-06-15T03:25:35.420Z,339.00
2018-06-15T03:26:36.490Z,389.00
2018-06-15T03:27:36.423Z,444.00
2018-06-15T03:28:36.187Z,486.00
2018-06-15T03:29:36.238Z,516.00
2018-06-15T03:30:36.381Z,542.00
2018-06-15T03:31:36.423Z,561.00
2018-06-15T03:32:36.488Z,579.00
2018-06-15T03:33:37.096Z,594.00
2018-06-15T03:34:58.211Z,618.00
2018-06-15T03:35:58.324Z,617.00
2018-06-15T03:36:58.363Z,607.00
2018-06-15T03:38:41.856Z,587.00
2018-06-15T03:39:42.715Z,574.00
2018-06-15T03:40:42.619Z,574.00
2018-06-15T03:41:42.575Z,589.00
2018-06-15T03:43:03.946Z,613.00
2018-06-15T03:44:04.723Z,627.00
2018-06-15T03:45:05.598Z,638.00
2018-06-15T03:46:04.527Z,672.00
2018-06-15T03:47:04.940Z,739.00
2018-06-15T03:48:04.925Z,838.00
2018-06-15T03:49:04.997Z,956.00
2018-06-15T03:50:26.491Z,1129.00
2018-06-15T03:51:27.472Z,1243.00
2018-06-15T03:52:27.469Z,1336.00
2018-06-15T03:53:27.336Z,1406.00
2018-06-15T03:54:27.676Z,1450.00
2018-06-15T03:55:27.491Z,1504.00
2018-06-15T03:56:27.456Z,1568.00
2018-06-15T03:57:27.265Z,1590.00
2018-06-15T03:58:27.374Z,1580.00
2018-06-15T03:59:27.528Z,1573.00
2018-06-15T04:00:28.439Z,1581.00
2018-06-15T04:01:27.300Z,1600.00
2018-06-15T04:02:27.055Z,1629.00
2018-06-15T04:03:26.997Z,1671.00
2018-06-15T04:04:27.037Z,1683.00
2018-06-15T04:06:32.115Z,1686.00
2018-06-15T04:07:33.638Z,1718.00
2018-06-15T04:09:18.500Z,1842.00
2018-06-15T04:10:40.363Z,2011.00
2018-06-15T04:11:40.585Z,2158.00
2018-06-15T04:12:40.557Z,2316.00
2018-06-15T04:13:40.362Z,2458.00
2018-06-15T04:14:40.769Z,2589.00
2018-06-15T04:15:40.735Z,2695.00
2018-06-15T04:17:02.838Z,2767.00
2018-06-15T04:18:03.943Z,2795.00
2018-06-15T04:19:03.723Z,2836.00
2018-06-15T04:20:03.779Z,2896.00
2018-06-15T04:21:03.771Z,2960.00
2018-06-15T04:22:04.084Z,3022.00
2018-06-15T04:23:03.168Z,3093.00
2018-06-15T04:24:03.483Z,3172.00
2018-06-15T04:25:04.063Z,3245.00
2018-06-15T04:26:03.258Z,3287.00
2018-06-15T04:27:03.454Z,3316.00
2018-06-15T04:28:25.151Z,3280.00
2018-06-15T04:29:25.208Z,3188.00
2018-06-15T04:30:25.879Z,3091.00
2018-06-15T04:31:26.071Z,3014.00
2018-06-15T04:32:25.124Z,3046.00
2018-06-15T04:33:46.460Z,3216.00
2018-06-15T04:34:47.050Z,3377.00
2018-06-15T04:35:46.683Z,3521.00
2018-06-15T04:36:48.120Z,3695.00
2018-06-15T04:37:47.874Z,3949.00
2018-06-15T04:39:31.732Z,4276.00
2018-06-15T04:40:31.698Z,4380.00
2018-06-15T04:41:32.204Z,4401.00
2018-06-15T04:42:53.222Z,4322.00
2018-06-15T04:43:53.361Z,4235.00
2018-06-15T04:44:53.371Z,4156.00
2018-06-15T04:45:53.471Z,4067.00
2018-06-15T04:46:54.227Z,3994.00
2018-06-15T04:47:54.347Z,3885.00
2018-06-15T04:48:53.505Z,3770.00
2018-06-15T04:50:16.313Z,3594.00
2018-06-15T04:51:15.440Z,3468.00
2018-06-15T04:52:15.252Z,3442.00
2018-06-15T04:53:15.179Z,3480.00
2018-06-15T04:54:15.139Z,3575.00
2018-06-15T04:55:16.374Z,3698.00
2018-06-15T04:56:36.858Z,3792.00
2018-06-15T04:57:40.769Z,3873.00
2018-06-15T04:58:37.824Z,4003.00
2018-06-15T04:59:59.438Z,4203.00
2018-06-15T05:00:59.445Z,4345.00
2018-06-15T05:01:59.774Z,4489.00
2018-06-15T05:02:59.797Z,4578.00
2018-06-15T05:03:59.988Z,4619.00
2018-06-15T05:04:59.757Z,4568.00
2018-06-15T05:05:59.872Z,4634.00
2018-06-15T05:07:00.150Z,4798.00
2018-06-15T05:08:00.390Z,5132.00
2018-06-15T05:08:59.364Z,5465.00
2018-06-15T05:10:22.511Z,5774.00
2018-06-15T05:11:23.608Z,5912.00
2018-06-15T05:12:22.515Z,5919.00
2018-06-15T05:13:44.171Z,5810.00
2018-06-15T05:14:44.293Z,5738.00
2018-06-15T05:16:05.772Z,5669.00
2018-06-15T05:17:06.631Z,5617.00
2018-06-15T05:18:17.919Z,5532.00
2018-06-15T05:19:06.938Z,5448.00
2018-06-15T05:20:06.841Z,5368.00
2018-06-15T05:21:06.724Z,5266.00
2018-06-15T05:22:06.606Z,5251.00
2018-06-15T05:23:06.539Z,5334.00
2018-06-15T05:24:06.739Z,5448.00
2018-06-15T05:25:06.979Z,5537.00
2018-06-15T05:26:06.132Z,5589.00
2018-06-15T05:27:28.771Z,5599.00
2018-06-15T05:28:28.966Z,5577.00
2018-06-15T05:29:51.565Z,5645.00
2018-06-15T05:30:51.578Z,5711.00
2018-06-15T05:31:51.704Z,5798.00
2018-06-15T05:32:51.887Z,6089.00
2018-06-15T05:33:51.885Z,6478.00
2018-06-15T05:34:50.800Z,6970.00
2018-06-15T05:36:12.354Z,7443.00
2018-06-15T05:37:13.001Z,7425.00
2018-06-15T05:38:34.749Z,7534.00
2018-06-15T05:39:35.745Z,7826.00
2018-06-15T05:40:35.816Z,8231.00
2018-06-15T05:41:59.381Z,8855.00
2018-06-15T05:42:59.102Z,9266.00
2018-06-15T05:44:19.892Z,9774.00
2018-06-15T05:45:20.130Z,10248.00
2018-06-15T05:46:41.996Z,11104.00
2018-06-15T05:47:43.744Z,11696.00
2018-06-15T05:48:42.599Z,11992.00
2018-06-15T05:49:42.779Z,12123.00
2018-06-15T05:50:43.333Z,12304.00
2018-06-15T05:51:42.448Z,12446.00
2018-06-15T05:53:04.279Z,12755.00
2018-06-15T05:54:04.124Z,13073.00
2018-06-15T05:55:04.228Z,13833.00
2018-06-15T05:56:04.436Z,14512.00
2018-06-15T05:57:04.567Z,15046.00
2018-06-15T05:58:05.365Z,15507.00
2018-06-15T05:59:05.631Z,15623.00
2018-06-15T06:00:04.679Z,16800.00
2018-06-15T06:01:04.628Z,15808.00
2018-06-15T06:02:04.926Z,15763.00
2018-06-15T06:03:05.232Z,16848.00
2018-06-15T06:04:05.811Z,16132.00
2018-06-15T06:05:48.788Z,17288.00
2018-06-15T06:06:49.266Z,17272.00
2018-06-15T06:07:49.570Z,17160.00
2018-06-15T06:09:56.369Z,17816.00
2018-06-15T06:10:56.475Z,17960.00
2018-06-15T06:11:56.822Z,18464.00
2018-06-15T06:12:56.688Z,19048.00
2018-06-15T06:13:56.593Z,19160.00
2018-06-15T06:14:56.764Z,19192.00
2018-06-15T06:15:57.634Z,18928.00
2018-06-15T06:16:56.531Z,18344.00
2018-06-15T06:18:18.758Z,17496.00
2018-06-15T06:19:19.547Z,17040.00
2018-06-15T06:20:20.696Z,16720.00
2018-06-15T06:21:19.480Z,15904.00
2018-06-15T06:22:19.342Z,15034.00
2018-06-15T06:23:19.422Z,14097.00
2018-06-15T06:24:19.059Z,12905.00
2018-06-15T06:25:18.729Z,12024.00
2018-06-15T06:26:19.264Z,11560.00
2018-06-15T06:27:42.846Z,11086.00
2018-06-15T06:28:42.908Z,10746.00
2018-06-15T06:29:43.225Z,10426.00
2018-06-15T06:30:43.364Z,10087.00
2018-06-15T06:31:45.316Z,9837.00
2018-06-15T06:32:43.315Z,9685.00
2018-06-15T06:33:43.522Z,9627.00
2018-06-15T06:34:43.561Z,9611.00
2018-06-15T06:36:05.883Z,9434.00
2018-06-15T06:37:28.047Z,9305.00
2018-06-15T06:38:28.883Z,9519.00
2018-06-15T06:39:28.814Z,10018.00
2018-06-15T06:40:28.821Z,10229.00
2018-06-15T06:41:28.859Z,10184.00
2018-06-15T06:42:28.819Z,10485.00
2018-06-15T06:43:53.838Z,10960.00
2018-06-15T06:44:51.880Z,11290.00
2018-06-15T06:45:52.137Z,11919.00
2018-06-15T06:46:52.618Z,12608.00
2018-06-15T06:48:36.862Z,14597.00
2018-06-15T06:49:37.173Z,15441.00
2018-06-15T06:51:00.043Z,16576.00
2018-06-15T06:51:59.176Z,16944.00
2018-06-15T06:52:59.281Z,17272.00
2018-06-15T06:54:21.302Z,17880.00
2018-06-15T06:55:21.152Z,17816.00
2018-06-15T06:56:22.638Z,17640.00
2018-06-15T06:57:23.634Z,18016.00
2018-06-15T06:58:21.669Z,18696.00
2018-06-15T06:59:21.360Z,19512.00
2018-06-15T07:00:21.684Z,20144.00
2018-06-15T07:01:21.541Z,20664.00
2018-06-15T07:02:44.092Z,21160.00
2018-06-15T07:03:44.746Z,21232.00
2018-06-15T07:04:43.802Z,21264.00
2018-06-15T07:05:44.436Z,21616.00
2018-06-15T07:06:43.164Z,22336.00
2018-06-15T07:07:44.278Z,22752.00
2018-06-15T07:08:44.056Z,22792.00
2018-06-15T07:10:07.621Z,22392.00
2018-06-15T07:11:08.405Z,21864.00
2018-06-15T07:12:08.310Z,21528.00
2018-06-15T07:13:08.965Z,21312.00
2018-06-15T07:14:08.273Z,21368.00
2018-06-15T07:15:09.100Z,21440.00
2018-06-15T07:16:08.154Z,21136.00
2018-06-15T07:17:09.392Z,20888.00
2018-06-15T07:18:08.389Z,20424.00
2018-06-15T07:19:08.297Z,20344.00
2018-06-15T07:20:31.555Z,21336.00
2018-06-15T07:21:31.665Z,21720.00
2018-06-15T07:22:53.496Z,21688.00
2018-06-15T07:24:16.323Z,21344.00
2018-06-15T07:25:17.763Z,21784.00
2018-06-15T07:26:17.096Z,22256.00
2018-06-15T07:27:17.916Z,22952.00
2018-06-15T07:28:17.148Z,23600.00
2018-06-15T07:29:17.642Z,24216.00
2018-06-15T07:30:39.742Z,24360.00
2018-06-15T07:32:02.034Z,24520.00
2018-06-15T07:33:02.144Z,24776.00
2018-06-15T07:34:02.163Z,25224.00
2018-06-15T07:35:02.129Z,25744.00
2018-06-15T07:36:02.303Z,26720.00
2018-06-15T07:37:02.310Z,26248.00
2018-06-15T07:38:02.381Z,26384.00
2018-06-15T07:39:02.542Z,26248.00
2018-06-15T07:40:02.773Z,26312.00
2018-06-15T07:41:03.087Z,26320.00
2018-06-15T07:42:44.426Z,26032.00
2018-06-15T07:43:45.284Z,26016.00
2018-06-15T07:44:45.493Z,26072.00
2018-06-15T07:46:07.423Z,25736.00
2018-06-15T07:47:29.441Z,25152.00
2018-06-15T07:48:30.466Z,24984.00
2018-06-15T07:49:30.392Z,24712.00
2018-06-15T07:50:30.521Z,24656.00
2018-06-15T07:51:29.883Z,24584.00
2018-06-15T07:52:30.110Z,24288.00
2018-06-15T07:53:30.274Z,24056.00
2018-06-15T07:54:30.246Z,24024.00
2018-06-15T07:55:30.147Z,24240.00
2018-06-15T07:56:30.263Z,24648.00
2018-06-15T07:57:30.402Z,24968.00
2018-06-15T07:58:30.233Z,25288.00
2018-06-15T07:59:30.181Z,25224.00
2018-06-15T08:00:29.976Z,24664.00
2018-06-15T08:01:29.774Z,24136.00
2018-06-15T08:02:29.925Z,23752.00
2018-06-15T08:03:29.794Z,23608.00
2018-06-15T08:04:29.565Z,23440.00
2018-06-15T08:05:29.240Z,22944.00
2018-06-15T08:06:30.488Z,22224.00
2018-06-15T08:07:30.261Z,22024.00
2018-06-15T08:08:30.121Z,22224.00
2018-06-15T08:09:30.088Z,22144.00
2018-06-15T08:10:29.899Z,22512.00
2018-06-15T08:11:29.791Z,22672.00
2018-06-15T08:12:29.548Z,22896.00
2018-06-15T08:13:29.674Z,23224.00
2018-06-15T08:14:29.719Z,23648.00
2018-06-15T08:15:29.833Z,24040.00
2018-06-15T08:16:29.566Z,24064.00
2018-06-15T08:17:29.624Z,24336.00
2018-06-15T08:18:29.516Z,25168.00
2018-06-15T08:19:29.704Z,26048.00
2018-06-15T08:20:29.938Z,26536.00
2018-06-15T08:22:13.501Z,26344.00
2018-06-15T08:23:57.743Z,27632.00
2018-06-15T08:24:58.694Z,28680.00
2018-06-15T08:25:58.033Z,27880.00
2018-06-15T08:26:58.362Z,27408.00
2018-06-15T08:27:59.137Z,26416.00
2018-06-15T08:28:58.258Z,25344.00
2018-06-15T08:29:58.368Z,24584.00
2018-06-15T08:30:58.649Z,23888.00
2018-06-15T08:31:58.583Z,23488.00
2018-06-15T08:32:58.831Z,23560.00
2018-06-15T08:33:58.838Z,24704.00
2018-06-15T08:34:58.023Z,26240.00
2018-06-15T08:35:58.129Z,27904.00
2018-06-15T08:36:58.192Z,29464.00
2018-06-15T08:37:58.185Z,30688.00
2018-06-15T08:38:58.260Z,32816.00
2018-06-15T08:40:20.212Z,34368.00
2018-06-15T08:42:25.197Z,37920.00
2018-06-15T08:43:26.305Z,42944.00
2018-06-15T08:44:25.419Z,37400.00
2018-06-15T08:45:25.690Z,37696.00
2018-06-15T08:46:25.574Z,36408.00
2018-06-15T08:47:25.824Z,35792.00
2018-06-15T08:48:25.755Z,29904.00
2018-06-15T08:49:25.968Z,25784.00
2018-06-15T08:50:47.887Z,21528.00
2018-06-15T08:52:54.347Z,18040.00
2018-06-15T08:53:54.389Z,16400.00
2018-06-15T08:54:54.230Z,14732.00
2018-06-15T08:55:54.429Z,13846.00
2018-06-15T08:56:54.474Z,13202.00
2018-06-15T08:58:16.123Z,12577.00
2018-06-15T08:59:16.759Z,12591.00
2018-06-15T09:00:17.610Z,13182.00
2018-06-15T09:01:16.685Z,13887.00
2018-06-15T09:02:38.219Z,14856.00
2018-06-15T09:03:39.377Z,15657.00
2018-06-15T09:04:38.534Z,16592.00
2018-06-15T09:06:00.654Z,18024.00
2018-06-15T09:07:22.492Z,19912.00
2018-06-15T09:08:23.246Z,21736.00
2018-06-15T09:09:23.361Z,23768.00
2018-06-15T09:10:44.219Z,25936.00
2018-06-15T09:11:44.501Z,27352.00
2018-06-15T09:12:44.601Z,28240.00
2018-06-15T09:13:44.868Z,29128.00
2018-06-15T09:14:45.284Z,30864.00
2018-06-15T09:15:44.274Z,33672.00
2018-06-15T09:16:44.786Z,36408.00
2018-06-15T09:17:44.989Z,47728.00
2018-06-15T09:18:45.131Z,41144.00
2018-06-15T09:20:28.767Z,43872.00
2018-06-15T09:22:12.647Z,65535.00
2018-06-15T09:23:12.593Z,65535.00
2018-06-15T09:24:57.124Z,29744.00
2018-06-15T09:25:57.401Z,26488.00
2018-06-15T09:26:57.621Z,24480.00
2018-06-15T09:27:57.663Z,23016.00
2018-06-15T09:28:57.989Z,21760.00
2018-06-15T09:29:56.889Z,19760.00
2018-06-15T09:31:20.078Z,17360.00
2018-06-15T09:32:20.437Z,16064.00
2018-06-15T09:33:20.358Z,16112.00
2018-06-15T09:34:20.118Z,16080.00
2018-06-15T09:35:41.959Z,15582.00
2018-06-15T09:37:03.758Z,15503.00
2018-06-15T09:38:04.806Z,15562.00
2018-06-15T09:39:04.876Z,15890.00
2018-06-15T09:40:06.312Z,16456.00
2018-06-15T09:41:04.412Z,16800.00
2018-06-15T09:42:04.415Z,17280.00
2018-06-15T09:43:05.175Z,16992.00
2018-06-15T09:44:26.030Z,16240.00
2018-06-15T09:45:27.918Z,15039.00
2018-06-15T09:46:26.899Z,14279.00
2018-06-15T09:47:49.357Z,13537.00
2018-06-15T09:48:49.892Z,13348.00
2018-06-15T09:49:49.758Z,13338.00
2018-06-15T09:50:49.599Z,13468.00
2018-06-15T09:51:49.607Z,13517.00
2018-06-15T09:52:49.723Z,13574.00
2018-06-15T09:53:49.833Z,13693.00
2018-06-15T09:54:49.875Z,13601.00
2018-06-15T09:56:12.029Z,13592.00
2018-06-15T09:57:12.065Z,13603.00
2018-06-15T09:58:11.950Z,13781.00
2018-06-15T09:59:13.004Z,13969.00
2018-06-15T10:00:12.260Z,13941.00
2018-06-15T10:01:37.380Z,14095.00
2018-06-15T10:02:37.147Z,14411.00
2018-06-15T10:03:59.042Z,14804.00
2018-06-15T10:05:44.708Z,16104.00
2018-06-15T10:07:06.978Z,17152.00
2018-06-15T10:08:06.982Z,18192.00
2018-06-15T10:09:07.812Z,19216.00
2018-06-15T10:10:28.459Z,20816.00
2018-06-15T10:11:51.525Z,22440.00
2018-06-15T10:12:51.672Z,24368.00
2018-06-15T10:13:51.693Z,25664.00
2018-06-15T10:14:51.979Z,26192.00
2018-06-15T10:15:51.890Z,65535.00
2018-06-15T10:17:14.042Z,29376.00
2018-06-15T10:18:14.664Z,41728.00
2018-06-15T10:19:14.763Z,32544.00
2018-06-15T10:20:15.050Z,32912.00
2018-06-15T10:21:36.013Z,33256.00
2018-06-15T10:22:36.830Z,33224.00
2018-06-15T10:24:22.169Z,33856.00
2018-06-15T10:25:22.125Z,34736.00
2018-06-15T10:26:22.033Z,35304.00
2018-06-15T10:27:22.375Z,36432.00
2018-06-15T10:28:24.556Z,37904.00
2018-06-15T10:29:45.076Z,42904.00
2018-06-15T10:30:45.125Z,45224.00
2018-06-15T10:31:44.767Z,48128.00
2018-06-15T10:32:45.756Z,65535.00
2018-06-15T10:33:44.650Z,62288.00
2018-06-15T10:34:44.612Z,65535.00
2018-06-15T10:35:44.782Z,56664.00
2018-06-15T10:36:44.857Z,46848.00
2018-06-15T10:37:45.171Z,45640.00
2018-06-15T10:38:45.229Z,41920.00
2018-06-15T10:39:44.194Z,41120.00
2018-06-15T10:40:45.091Z,39800.00
2018-06-15T10:41:46.087Z,37368.00
2018-06-15T10:42:46.228Z,35728.00
2018-06-15T10:43:44.225Z,34200.00
2018-06-15T10:44:44.448Z,31600.00
2018-06-15T10:45:44.531Z,29736.00
2018-06-15T10:46:44.826Z,28776.00
2018-06-15T10:47:44.844Z,27992.00
2018-06-15T10:48:45.084Z,27784.00
2018-06-15T10:49:43.980Z,27592.00
2018-06-15T10:50:44.818Z,27216.00
2018-06-15T10:51:44.728Z,26200.00
2018-06-15T10:52:44.788Z,25928.00
2018-06-15T10:53:44.764Z,24776.00
2018-06-15T10:55:06.410Z,24232.00
2018-06-15T10:56:07.515Z,25032.00
2018-06-15T10:57:06.319Z,25672.00
2018-06-15T10:58:07.324Z,26896.00
2018-06-15T10:59:07.603Z,28216.00
2018-06-15T11:00:06.546Z,29224.00
2018-06-15T11:01:06.583Z,30408.00
2018-06-15T11:02:07.250Z,30864.00
2018-06-15T11:03:07.220Z,31480.00
2018-06-15T11:04:07.213Z,42904.00
2018-06-15T11:05:07.846Z,36512.00
2018-06-15T11:06:06.800Z,35504.00
2018-06-15T11:07:08.446Z,38600.00
2018-06-15T11:08:06.634Z,46560.00
2018-06-15T11:09:07.510Z,38304.00
2018-06-15T11:10:07.187Z,37728.00
2018-06-15T11:11:07.510Z,38032.00
2018-06-15T11:12:06.511Z,39336.00
2018-06-15T11:13:06.666Z,42048.00
2018-06-15T11:14:51.851Z,46040.00
2018-06-15T11:16:14.862Z,48424.00
2018-06-15T11:17:37.563Z,50960.00
2018-06-15T11:18:38.340Z,51944.00
2018-06-15T11:19:37.542Z,65535.00
2018-06-15T11:20:37.809Z,65535.00
2018-06-15T11:21:38.314Z,60856.00
2018-06-15T11:22:59.983Z,61328.00
2018-06-15T11:24:10.204Z,65535.00
2018-06-15T11:25:00.336Z,65535.00
2018-06-15T11:26:00.481Z,65535.00
2018-06-15T11:27:00.772Z,65535.00
2018-06-15T11:28:00.026Z,65535.00
2018-06-15T11:29:01.770Z,55256.00
2018-06-15T11:30:00.943Z,59032.00
2018-06-15T11:31:23.998Z,65535.00
2018-06-15T11:32:23.964Z,65535.00
2018-06-15T11:33:24.669Z,65535.00
2018-06-15T11:34:47.226Z,65535.00
2018-06-15T11:35:48.440Z,65535.00
2018-06-15T11:36:47.585Z,65535.00
2018-06-15T11:37:47.665Z,65535.00
2018-06-15T11:38:49.101Z,65535.00
2018-06-15T11:40:33.101Z,53896.00
2018-06-15T11:42:17.172Z,44888.00
2018-06-15T11:43:40.766Z,45240.00
2018-06-15T11:44:40.140Z,42048.00
2018-06-15T11:45:40.709Z,41536.00
2018-06-15T11:46:40.864Z,45584.00
2018-06-15T11:47:41.774Z,65535.00
2018-06-15T11:48:39.463Z,42320.00
2018-06-15T11:49:41.830Z,40720.00
2018-06-15T11:50:40.999Z,47352.00
2018-06-15T11:52:24.963Z,65535.00
2018-06-15T11:53:25.484Z,65535.00
2018-06-15T11:54:25.964Z,65535.00
2018-06-15T11:55:27.444Z,65535.00
2018-06-15T11:56:24.922Z,62184.00
2018-06-15T11:57:48.542Z,65535.00
2018-06-15T11:58:48.733Z,65535.00
2018-06-15T11:59:49.104Z,65535.00
2018-06-15T12:01:11.191Z,65535.00
2018-06-15T12:02:12.099Z,65535.00
2018-06-15T12:03:33.363Z,65535.00
2018-06-15T12:04:33.469Z,65535.00
2018-06-15T12:05:33.436Z,65535.00
2018-06-15T12:06:33.654Z,65535.00
2018-06-15T12:07:56.717Z,65535.00
2018-06-15T12:09:19.205Z,65535.00
2018-06-15T12:10:19.667Z,65535.00
2018-06-15T12:11:19.756Z,65535.00
2018-06-15T12:12:20.394Z,65535.00
2018-06-15T12:14:04.005Z,65535.00
2018-06-15T12:15:04.985Z,61304.00
2018-06-15T12:16:04.125Z,65535.00
2018-06-15T12:17:04.236Z,55728.00
2018-06-15T12:18:29.119Z,57088.00
2018-06-15T12:19:30.387Z,58240.00
2018-06-15T12:20:29.417Z,65535.00
2018-06-15T12:21:52.241Z,57128.00
2018-06-15T12:22:52.155Z,65535.00
2018-06-15T12:23:52.600Z,65448.00
2018-06-15T12:24:52.650Z,54120.00
2018-06-15T12:25:52.928Z,47904.00
2018-06-15T12:26:52.107Z,60928.00
2018-06-15T12:27:52.536Z,65535.00
2018-06-15T12:28:52.700Z,65535.00
2018-06-15T12:29:52.634Z,65535.00
2018-06-15T12:30:53.406Z,65535.00
2018-06-15T12:31:52.680Z,65535.00
2018-06-15T12:32:52.967Z,65535.00
2018-06-15T12:34:16.253Z,65535.00
2018-06-15T12:35:16.825Z,65535.00
2018-06-15T12:36:17.180Z,65535.00
2018-06-15T12:37:16.294Z,65535.00
2018-06-15T12:38:16.480Z,65535.00
2018-06-15T12:39:16.429Z,65535.00
2018-06-15T12:40:16.481Z,65535.00
2018-06-15T12:41:16.662Z,65535.00
2018-06-15T12:43:01.179Z,65535.00
2018-06-15T12:44:01.515Z,65535.00
2018-06-15T12:45:23.353Z,65535.00
2018-06-15T12:46:23.577Z,65535.00
2018-06-15T12:47:23.742Z,65535.00
2018-06-15T12:48:24.043Z,65535.00
2018-06-15T12:49:24.060Z,65535.00
2018-06-15T12:50:23.136Z,65535.00
2018-06-15T12:51:23.960Z,65535.00
2018-06-15T12:52:24.587Z,65535.00
2018-06-15T12:54:08.283Z,65535.00
2018-06-15T12:55:08.400Z,65535.00
2018-06-15T12:56:08.436Z,65535.00
2018-06-15T12:57:07.772Z,65535.00
2018-06-15T12:58:33.532Z,65535.00
2018-06-15T12:59:36.644Z,65535.00
2018-06-15T13:00:32.053Z,65535.00
2018-06-15T13:01:32.152Z,65535.00
2018-06-15T13:02:33.626Z,65535.00
2018-06-15T13:03:53.725Z,65535.00
2018-06-15T13:04:55.059Z,65535.00
2018-06-15T13:06:50.033Z,31944.00
2018-06-15T13:07:50.765Z,35296.00
2018-06-15T13:08:51.677Z,32792.00
2018-06-15T13:09:49.035Z,37224.00
2018-06-15T13:10:48.183Z,31464.00
2018-06-15T13:11:48.803Z,29104.00
2018-06-15T13:12:50.515Z,26184.00
2018-06-15T13:13:51.006Z,24024.00